Time;durP1;ratioP1;P1;durP2;ratioP2;P2;SDS_P1;SDS_P2;PMS_P1;PMS_P2;Temp;Humidity;BMP_temperature;BMP_pressure;BME280_temperature;BME280_humidity;BME280_pressure;Samples;Min_cycle;Max_cycle;Signal;HPM_P1;HPM_P2
2022/06/28 00:01:37;;;;;;;;;;;;;;;22.83;47.02;102073.25;4890923;29;19947;-81
2022/06/28 00:04:04;;;;;;;;;;;;;;;22.82;47.46;102071.50;4891752;29;19923;-80
2022/06/28 00:06:34;;;;;;;;;;;;;;;22.82;47.72;102075.03;4874156;29;19916;-81
2022/06/28 00:09:00;;;;;;;;;;;;;;;22.79;47.41;102065.41;4872812;29;19912;-80
2022/06/28 00:11:26;;;;;;;;;;;;;;;22.82;47.17;102068.88;4896738;29;19919;-80
2022/06/28 00:13:52;;;;;;;;;;;;;;;22.79;47.13;102065.41;4885380;29;19918;-80
2022/06/28 00:16:19;;;;;;;;;;;;;;;22.80;47.27;102067.16;4901169;29;19919;-80
2022/06/28 00:18:44;;;;;;;;;;;;;;;22.80;47.46;102061.91;4899137;29;20018;-81
2022/06/28 00:21:11;;;;;;;;;;;;;;;22.79;47.32;102060.16;4879288;29;19916;-80
2022/06/28 00:23:38;;;;;;;;;;;;;;;22.80;47.40;102061.06;4878684;29;19918;-80
2022/06/28 00:26:03;;;;;;;;;;;;;;;22.82;47.52;102058.38;4879389;29;19919;-80
2022/06/28 00:28:29;;;;;;;;;;;;;;;22.82;47.33;102061.91;4878769;29;20019;-80
2022/06/28 00:30:55;;;;;;;;;;;;;;;22.78;47.58;102061.06;4895516;29;19919;-80
2022/06/28 00:33:20;;;;;;;;;;;;;;;22.79;47.56;102059.28;4879023;29;19983;-80
2022/06/28 00:35:47;;;;;;;;;;;;;;;22.77;47.22;102069.81;4894126;29;19936;-81
2022/06/28 00:38:13;;;;;;;;;;;;;;;22.79;47.63;102059.28;4877021;29;19919;-80
2022/06/28 00:40:41;;;;;;;;;;;;;;;22.77;47.54;102061.06;4894817;29;19916;-80
2022/06/28 00:43:07;;;;;;;;;;;;;;;22.78;47.49;102057.56;4891546;29;19916;-80
2022/06/28 00:45:33;;;;;;;;;;;;;;;22.78;47.64;102055.81;4876573;29;19923;-80
2022/06/28 00:47:59;;;;;;;;;;;;;;;22.77;47.26;102063.69;4876631;29;19916;-80
2022/06/28 00:50:24;;;;;;;;;;;;;;;22.77;47.37;102059.31;4876915;29;19923;-81
2022/06/28 00:53:23;;;;;;;;;;;;;;;22.76;47.21;102060.22;4892934;29;19998;-80
2022/06/28 00:58:55;;;;;;;;;;;;;;;22.75;47.42;102062.84;4853507;29;19976;-80
2022/06/28 01:01:21;;;;;;;;;;;;;;;22.76;47.55;102061.97;4853962;29;19995;-80
2022/06/28 01:03:47;;;;;;;;;;;;;;;22.76;47.22;102061.97;4851769;29;19955;-80
2022/06/28 01:06:14;;;;;;;;;;;;;;;22.76;47.60;102069.84;4882734;29;19915;-80
2022/06/28 01:08:39;;;;;;;;;;;;;;;22.76;47.64;102078.56;4875439;29;19923;-80
2022/06/28 01:11:20;;;;;;;;;;;;;;;22.76;47.61;102065.47;4875937;29;19915;-80
2022/06/28 01:13:53;;;;;;;;;;;;;;;22.75;47.10;102075.97;4883452;29;19903;-81
2022/06/28 01:16:21;;;;;;;;;;;;;;;22.77;47.66;102076.81;4882895;29;19919;-81
2022/06/28 01:18:46;;;;;;;;;;;;;;;22.77;47.55;102080.31;4876289;29;19983;-80
2022/06/28 01:21:13;;;;;;;;;;;;;;;22.76;47.17;102080.34;4891137;29;19923;-80
2022/06/28 01:23:39;;;;;;;;;;;;;;;22.74;47.45;102079.50;4891395;29;19911;-81
2022/06/28 01:26:08;;;;;;;;;;;;;;;22.74;47.22;102077.72;4882678;29;19927;-81
2022/06/28 01:28:33;;;;;;;;;;;;;;;22.77;47.43;102079.44;4887149;29;19918;-81
2022/06/28 01:30:59;;;;;;;;;;;;;;;22.77;47.54;102079.44;4903131;29;19930;-81
2022/06/28 01:33:25;;;;;;;;;;;;;;;22.73;47.58;102081.25;4884457;29;19940;-81
2022/06/28 01:35:51;;;;;;;;;;;;;;;22.75;47.94;102079.44;4872201;29;19916;-81
2022/06/28 01:38:17;;;;;;;;;;;;;;;22.74;47.66;102088.22;4896543;29;19951;-80
2022/06/28 01:40:49;;;;;;;;;;;;;;;22.74;47.56;102082.13;4878534;29;19937;-81
2022/06/28 01:43:17;;;;;;;;;;;;;;;22.74;47.52;102082.13;4879970;29;19915;-81
2022/06/28 01:45:44;;;;;;;;;;;;;;;22.72;47.28;102084.75;4882386;29;19920;-80
2022/06/28 01:48:10;;;;;;;;;;;;;;;22.72;47.67;102084.75;4894213;29;19911;-80
2022/06/28 01:50:37;;;;;;;;;;;;;;;22.73;47.54;102086.50;4861606;29;19915;-81
2022/06/28 02:17:26;;;;;;;;;;;;;;;22.69;47.67;102105.78;5438839;23;19924;-80
2022/06/28 02:19:54;;;;;;;;;;;;;;;22.71;47.84;102103.13;4891302;29;19930;-80
2022/06/28 02:22:20;;;;;;;;;;;;;;;22.70;47.74;102106.66;4875242;29;19924;-80
2022/06/28 02:24:45;;;;;;;;;;;;;;;22.69;47.65;102103.16;4875370;29;19923;-81
2022/06/28 02:30:16;;;;;;;;;;;;;;;22.62;47.66;102111.97;4895285;29;19940;-80
2022/06/28 02:32:48;;;;;;;;;;;;;;;22.44;47.79;102110.41;4889943;29;19972;-80
2022/06/28 02:40:42;;;;;;;;;;;;;;;22.29;47.73;102116.66;4876060;29;19923;-79
2022/06/28 02:43:08;;;;;;;;;;;;;;;22.27;47.85;102117.56;4872994;29;19939;-79
2022/06/28 02:45:35;;;;;;;;;;;;;;;22.25;47.81;102117.56;4871980;29;19912;-79
2022/06/28 02:48:07;;;;;;;;;;;;;;;22.26;47.78;102123.69;4878099;29;20004;-79
2022/06/28 02:50:32;;;;;;;;;;;;;;;22.25;47.85;102122.81;4882019;29;19928;-80
2022/06/28 02:52:58;;;;;;;;;;;;;;;22.24;47.80;102123.69;4881932;29;19916;-80
2022/06/28 02:55:23;;;;;;;;;;;;;;;22.22;47.58;102121.94;4877281;29;19962;-79
2022/06/28 02:57:49;;;;;;;;;;;;;;;22.19;47.73;102123.72;4874345;29;19915;-79
2022/06/28 03:00:16;;;;;;;;;;;;;;;22.17;47.79;102127.25;4874643;29;19923;-79
2022/06/28 03:02:42;;;;;;;;;;;;;;;22.18;47.46;102128.97;4857579;29;19927;-79
2022/06/28 03:05:10;;;;;;;;;;;;;;;22.17;47.60;102120.22;4859032;29;19916;-79
2022/06/28 03:07:36;;;;;;;;;;;;;;;22.15;47.62;102124.63;4891157;29;19919;-80
2022/06/28 03:10:02;;;;;;;;;;;;;;;22.15;47.38;102119.38;4873185;29;19911;-79
2022/06/28 03:12:27;;;;;;;;;;;;;;;22.17;47.53;102119.38;4889537;29;19912;-79
2022/06/28 03:14:53;;;;;;;;;;;;;;;22.16;47.55;102122.84;4872250;29;20018;-79
2022/06/28 03:17:18;;;;;;;;;;;;;;;22.12;47.37;102129.00;4862372;29;19923;-79
2022/06/28 03:19:43;;;;;;;;;;;;;;;22.12;47.39;102129.91;4874086;29;19920;-79
2022/06/28 03:22:09;;;;;;;;;;;;;;;22.11;47.45;102130.75;4882138;29;19916;-79
2022/06/28 03:24:34;;;;;;;;;;;;;;;22.11;47.21;102133.38;4875174;29;19954;-79
2022/06/28 03:26:59;;;;;;;;;;;;;;;22.11;47.34;102141.25;4874553;29;19923;-79
2022/06/28 03:29:24;;;;;;;;;;;;;;;22.09;47.45;102143.00;4858248;29;19923;-79
2022/06/28 03:31:50;;;;;;;;;;;;;;;22.10;47.29;102144.78;4874517;29;19911;-79
2022/06/28 03:34:16;;;;;;;;;;;;;;;22.12;47.23;102147.34;4858207;29;19923;-79
2022/06/28 03:36:41;;;;;;;;;;;;;;;22.12;47.12;102144.72;4873817;29;19911;-79
2022/06/28 03:39:07;;;;;;;;;;;;;;;22.10;47.42;102150.00;4873274;29;19916;-78
2022/06/28 03:41:32;;;;;;;;;;;;;;;22.11;47.01;102154.34;4873210;29;19912;-79
2022/06/28 03:43:57;;;;;;;;;;;;;;;22.08;47.39;102159.63;4872413;29;19918;-78
2022/06/28 03:46:22;;;;;;;;;;;;;;;22.12;47.05;102163.97;4861351;29;19916;-79
2022/06/28 03:48:48;;;;;;;;;;;;;;;22.10;47.36;102155.25;4860536;29;19916;-78
2022/06/28 03:51:14;;;;;;;;;;;;;;;22.09;47.14;102163.13;4859300;29;20006;-79
2022/06/28 03:53:39;;;;;;;;;;;;;;;22.11;47.30;102163.97;4875731;29;20287;-79
2022/06/28 03:56:05;;;;;;;;;;;;;;;22.09;47.24;102157.88;4874008;29;19918;-79
2022/06/28 03:58:36;;;;;;;;;;;;;;;22.10;47.13;102160.50;5272265;23;20616;-80
2022/06/28 04:01:20;;;;;;;;;;;;;;;22.07;47.09;102160.50;4865214;29;19924;-79
2022/06/28 04:27:22;;;;;;;;;;;;;;;22.18;47.11;102177.00;4905532;29;19922;-85
2022/06/28 04:47:00;;;;;;;;;;;;;;;22.47;46.47;102185.56;4988482;23;19924;-80
2022/06/28 04:49:26;;;;;;;;;;;;;;;22.56;46.32;102182.88;4873177;29;19920;-82
2022/06/28 04:51:51;;;;;;;;;;;;;;;22.64;46.13;102178.41;4887448;29;19912;-81
2022/06/28 04:57:22;;;;;;;;;;;;;;;22.78;45.88;102189.66;4899500;29;19918;-83
2022/06/28 04:59:59;;;;;;;;;;;;;;;22.84;45.89;102188.69;4901135;29;19945;-84
2022/06/28 05:02:36;;;;;;;;;;;;;;;22.91;45.81;102185.16;5312216;23;19987;-79
2022/06/28 05:05:04;;;;;;;;;;;;;;;22.95;45.59;102186.88;4884457;29;19924;-80
2022/06/28 05:07:32;;;;;;;;;;;;;;;23.01;46.03;102183.31;4889548;29;19923;-79
2022/06/28 05:10:03;;;;;;;;;;;;;;;23.06;46.06;102185.88;4890480;29;20331;-81
2022/06/28 05:12:29;;;;;;;;;;;;;;;23.05;45.87;102181.53;4991182;23;20018;-78
2022/06/28 05:14:57;;;;;;;;;;;;;;;23.03;45.58;102188.56;4878986;29;19924;-80
2022/06/28 05:17:25;;;;;;;;;;;;;;;23.04;45.39;102192.91;4876565;29;19920;-80
2022/06/28 05:19:55;;;;;;;;;;;;;;;23.00;45.50;102179.81;4883971;29;19912;-83
2022/06/28 05:25:51;;;;;;;;;;;;;;;23.01;44.79;102188.56;4886549;29;19931;-83
2022/06/28 05:50:32;;;;;;;;;;;;;;;23.29;44.40;102180.38;4885336;29;19911;-82
2022/06/28 05:56:00;;;;;;;;;;;;;;;23.33;44.42;102182.06;4866183;29;19928;-82
2022/06/28 06:04:09;;;;;;;;;;;;;;;23.44;44.86;102174.06;5351372;23;19932;-83
2022/06/28 06:13:27;;;;;;;;;;;;;;;23.72;44.47;102182.44;4904361;29;19945;-82
2022/06/28 06:15:56;;;;;;;;;;;;;;;23.80;44.54;102180.59;4799761;29;19925;-83
2022/06/28 06:34:06;;;;;;;;;;;;;;;23.95;44.26;102187.38;4828689;29;19912;-82
2022/06/28 06:36:56;;;;;;;;;;;;;;;23.95;44.17;102183.03;4826748;29;19913;-82
2022/06/28 06:39:34;;;;;;;;;;;;;;;23.97;44.16;102177.72;4814043;29;19984;-81
2022/06/28 06:42:26;;;;;;;;;;;;;;;23.97;44.26;102181.19;4826705;29;19967;-81
2022/06/28 06:45:15;;;;;;;;;;;;;;;23.97;44.36;102183.84;4808166;30;19920;-82
2022/06/28 06:54:13;;;;;;;;;;;;;;;24.03;44.58;102185.50;4808888;30;19905;-81
2022/06/28 06:57:18;;;;;;;;;;;;;;;24.06;44.38;102189.84;4807567;30;19952;-82
2022/06/28 07:00:24;;;;;;;;;;;;;;;24.07;44.27;102183.72;4826727;29;19956;-81
2022/06/28 07:03:31;;;;;;;;;;;;;;;24.07;44.34;102181.94;4817104;29;19905;-82
2022/06/28 07:06:06;;;;;;;;;;;;;;;24.08;44.30;102183.66;4790768;29;19921;-82
2022/06/28 07:08:59;;;;;;;;;;;;;;;24.08;44.38;102188.94;4779947;29;19916;-82
2022/06/28 07:17:59;;;;;;;;;;;;;;;24.10;44.31;102179.25;4829783;29;19948;-82
2022/06/28 07:20:58;;;;;;;;;;;;;;;23.99;44.92;102187.31;4848413;29;20003;-82
2022/06/28 07:24:03;;;;;;;;;;;;;;;24.04;44.55;102187.25;4789841;30;19924;-82
2022/06/28 07:26:41;;;;;;;;;;;;;;;23.96;44.91;102184.75;4804072;29;19912;-81
2022/06/28 07:29:26;;;;;;;;;;;;;;;23.95;45.03;102192.63;4817122;29;19917;-81
2022/06/28 07:38:17;;;;;;;;;;;;;;;24.12;44.38;102195.03;4849435;29;19942;-82
2022/06/28 07:44:04;;;;;;;;;;;;;;;24.12;44.62;102200.28;4866886;29;19953;-82
2022/06/28 07:47:10;;;;;;;;;;;;;;;24.23;44.43;102193.94;4867682;29;19921;-82
2022/06/28 07:52:57;;;;;;;;;;;;;;;24.19;44.24;102199.28;4832041;29;19928;-82
2022/06/28 07:55:47;;;;;;;;;;;;;;;24.21;44.55;102194.88;4831640;29;19956;-81
2022/06/28 07:58:58;;;;;;;;;;;;;;;24.29;44.39;102200.88;4795400;29;19953;-82
2022/06/28 09:05:15;;;;;;;;;;;;;;;24.13;44.11;102175.72;4905301;29;19930;-83
2022/06/28 09:08:07;;;;;;;;;;;;;;;24.17;44.14;102166.88;4898877;29;19983;-82
2022/06/28 11:56:27;;;;;;;;;;;;;;;23.96;44.95;102092.72;4964285;23;19930;-84
2022/06/28 14:13:05;;;;;;;;;;;;;;;24.12;42.76;102031.97;1213197;27;19983;-84
2022/06/28 14:18:56;;;;;;;;;;;;;;;24.12;43.37;102037.22;4902839;29;19915;-83
2022/06/28 14:21:23;;;;;;;;;;;;;;;24.13;43.21;102034.56;4840383;29;19951;-81
2022/06/28 14:23:50;;;;;;;;;;;;;;;24.15;43.30;102038.06;4854691;29;19929;-79
2022/06/28 14:26:16;;;;;;;;;;;;;;;24.10;42.39;102039.00;4827589;29;20012;-79
2022/06/28 14:28:41;;;;;;;;;;;;;;;24.00;42.03;102033.94;4825474;29;19923;-79
2022/06/28 14:31:07;;;;;;;;;;;;;;;23.92;41.05;102034.97;4831063;29;19928;-79
2022/06/28 14:33:32;;;;;;;;;;;;;;;23.80;40.43;102031.66;4812356;29;19955;-80
2022/06/28 14:35:57;;;;;;;;;;;;;;;23.74;40.35;102030.84;4834871;29;19927;-79
2022/06/28 14:38:25;;;;;;;;;;;;;;;23.72;39.77;102030.00;4816314;29;19992;-79
2022/06/28 14:40:51;;;;;;;;;;;;;;;23.69;39.29;102028.31;4814113;29;20014;-79
2022/06/28 14:43:17;;;;;;;;;;;;;;;23.67;38.80;102022.19;4810317;29;19928;-79
2022/06/28 14:45:42;;;;;;;;;;;;;;;23.68;38.91;102017.81;4809817;29;19917;-79
2022/06/28 14:48:09;;;;;;;;;;;;;;;23.71;38.79;102017.75;4810829;29;20379;-78
2022/06/28 14:50:34;;;;;;;;;;;;;;;23.71;38.98;102015.13;4811435;29;19913;-78
2022/06/28 14:53:00;;;;;;;;;;;;;;;23.69;38.45;102006.38;4796758;30;19988;-79
2022/06/28 14:55:25;;;;;;;;;;;;;;;23.68;38.60;102002.03;4802438;29;19917;-78
2022/06/28 14:57:50;;;;;;;;;;;;;;;23.70;37.99;101998.50;4781272;29;19985;-78
2022/06/28 15:00:20;;;;;;;;;;;;;;;23.69;38.03;101993.25;4785135;30;19918;-78
2022/06/28 15:02:45;;;;;;;;;;;;;;;23.72;38.02;101998.47;4791487;30;19956;-78
2022/06/28 15:05:11;;;;;;;;;;;;;;;23.75;38.38;101993.16;4793754;30;19914;-78
2022/06/28 15:07:38;;;;;;;;;;;;;;;23.75;38.22;101980.91;4806971;29;20388;-78
2022/06/28 15:10:03;;;;;;;;;;;;;;;23.75;38.28;101991.41;4813662;29;19913;-78
2022/06/28 15:12:29;;;;;;;;;;;;;;;23.75;37.78;101985.25;4812331;29;19913;-78
2022/06/28 15:14:57;;;;;;;;;;;;;;;23.75;37.52;101982.63;4807122;29;19956;-78
2022/06/28 15:17:24;;;;;;;;;;;;;;;23.73;37.58;101984.41;4831515;29;19920;-78
2022/06/28 15:19:50;;;;;;;;;;;;;;;23.74;37.36;101984.41;4867248;29;20286;-78
2022/06/28 15:33:11;;;;;;;;;;;;;;;23.77;37.35;101965.97;4866056;29;20366;-78
2022/06/28 15:35:36;;;;;;;;;;;;;;;23.78;37.52;101956.34;4833511;29;19920;-78
2022/06/28 15:38:02;;;;;;;;;;;;;;;23.77;37.38;101951.97;4863606;29;20006;-78
2022/06/28 15:40:28;;;;;;;;;;;;;;;23.73;37.49;101950.25;4833795;29;19916;-79
2022/06/28 15:42:54;;;;;;;;;;;;;;;23.72;37.74;101945.91;4853470;29;19923;-79
2022/06/28 15:45:20;;;;;;;;;;;;;;;23.71;37.85;101946.78;4850582;29;20003;-79
2022/06/28 15:47:45;;;;;;;;;;;;;;;23.71;37.53;101944.16;4852655;29;20016;-79
2022/06/28 15:50:10;;;;;;;;;;;;;;;23.72;37.78;101936.25;4856849;29;19923;-79
2022/06/28 15:52:35;;;;;;;;;;;;;;;23.72;37.36;101933.63;4865526;29;19912;-78
2022/06/28 15:55:02;;;;;;;;;;;;;;;23.74;37.13;101933.59;4864244;29;19924;-78
2022/06/28 15:57:27;;;;;;;;;;;;;;;23.71;37.11;101921.38;4871157;29;19920;-78
2022/06/28 15:59:52;;;;;;;;;;;;;;;23.70;37.15;101930.16;4874318;29;19919;-76
2022/06/28 16:02:18;;;;;;;;;;;;;;;23.69;37.02;101923.19;4876847;29;19920;-78
2022/06/28 16:04:43;;;;;;;;;;;;;;;23.71;37.15;101916.09;4872166;29;19927;-78
2022/06/28 16:07:08;;;;;;;;;;;;;;;23.71;36.81;101915.25;4860009;29;19920;-79
2022/06/28 16:09:33;;;;;;;;;;;;;;;23.70;36.82;101901.25;4865653;29;19969;-79
2022/06/28 16:14:44;;;;;;;;;;;;;;;23.68;36.98;101900.41;4869903;29;20271;-79
2022/06/28 16:17:09;;;;;;;;;;;;;;;23.65;36.61;101897.84;4869788;29;20026;-79
2022/06/28 16:19:35;;;;;;;;;;;;;;;23.62;36.73;101890.88;4861047;29;20401;-79
2022/06/28 16:22:00;;;;;;;;;;;;;;;23.63;37.35;101891.75;4889793;29;19936;-79
2022/06/28 16:24:27;;;;;;;;;;;;;;;23.64;37.39;101892.63;4891591;29;19912;-79
2022/06/28 16:26:52;;;;;;;;;;;;;;;23.58;37.35;101894.47;4867159;29;19927;-80
2022/06/28 16:29:18;;;;;;;;;;;;;;;23.57;37.43;101895.34;4854090;29;19931;-81
2022/06/28 16:31:43;;;;;;;;;;;;;;;23.58;37.56;101885.69;4852742;29;19912;-78
2022/06/28 16:34:09;;;;;;;;;;;;;;;23.61;37.69;101880.41;4852947;29;20006;-79
2022/06/28 16:36:34;;;;;;;;;;;;;;;23.61;38.16;101885.66;4860699;29;19913;-79
2022/06/28 16:39:00;;;;;;;;;;;;;;;23.62;37.90;101882.97;4872474;29;19919;-79
2022/06/28 16:41:25;;;;;;;;;;;;;;;23.65;37.74;101878.56;4851233;29;20715;-79
2022/06/28 16:43:51;;;;;;;;;;;;;;;23.66;38.15;101881.16;4866463;29;19923;-78
2022/06/28 16:46:16;;;;;;;;;;;;;;;23.67;37.94;101876.78;4837656;29;19941;-78
2022/06/28 16:48:41;;;;;;;;;;;;;;;23.69;37.87;101875.00;4870960;29;19912;-79
2022/06/28 16:51:07;;;;;;;;;;;;;;;23.71;38.33;101873.19;4866543;29;20423;-78
2022/06/28 16:53:33;;;;;;;;;;;;;;;23.75;38.18;101874.88;4853094;29;19922;-78
2022/06/28 16:55:58;;;;;;;;;;;;;;;23.73;38.01;101874.91;4879144;29;19922;-78
2022/06/28 16:58:24;;;;;;;;;;;;;;;23.74;38.12;101871.38;4847670;29;19995;-78
2022/06/28 17:00:50;;;;;;;;;;;;;;;23.76;38.03;101874.03;4831983;29;19920;-78
2022/06/28 17:03:15;;;;;;;;;;;;;;;23.84;38.15;101872.09;4881552;29;19955;-77
2022/06/28 17:05:41;;;;;;;;;;;;;;;23.88;37.51;101876.41;4856070;29;19955;-78
2022/06/28 17:08:06;;;;;;;;;;;;;;;23.87;37.10;101872.06;4868257;29;19940;-77
2022/06/28 17:10:31;;;;;;;;;;;;;;;23.88;37.68;101870.28;4860590;29;19951;-78
2022/06/28 17:12:56;;;;;;;;;;;;;;;23.84;37.11;101869.47;4862680;29;20416;-77
2022/06/28 17:15:22;;;;;;;;;;;;;;;23.82;37.15;101866.00;4838633;29;20359;-78
2022/06/28 17:17:47;;;;;;;;;;;;;;;23.80;36.97;101870.41;4852812;29;19974;-76
2022/06/28 17:20:12;;;;;;;;;;;;;;;23.77;36.91;101866.09;4854242;29;19916;-77
2022/06/28 17:22:39;;;;;;;;;;;;;;;23.76;36.63;101861.75;4853072;29;19972;-77
2022/06/28 17:25:04;;;;;;;;;;;;;;;23.77;36.87;101865.22;4851203;29;19968;-76
2022/06/28 17:27:29;;;;;;;;;;;;;;;23.76;36.75;101863.53;4850924;29;19912;-76
2022/06/28 17:29:55;;;;;;;;;;;;;;;23.75;37.19;101878.41;4850633;29;19919;-77
2022/06/28 17:32:20;;;;;;;;;;;;;;;23.75;36.93;101867.00;4873908;29;19923;-77
2022/06/28 17:34:47;;;;;;;;;;;;;;;23.73;36.94;101867.00;4870964;29;19920;-78
2022/06/28 17:37:12;;;;;;;;;;;;;;;23.73;37.06;101859.13;4868953;29;19944;-78
2022/06/28 17:39:37;;;;;;;;;;;;;;;23.71;37.24;101860.91;4853083;29;19920;-77
2022/06/28 17:42:03;;;;;;;;;;;;;;;23.69;37.36;101857.47;4853325;29;19926;-76
2022/06/28 17:44:28;;;;;;;;;;;;;;;23.70;37.33;101859.19;4871038;29;19916;-77
2022/06/28 17:46:54;;;;;;;;;;;;;;;23.64;36.91;101856.69;4853718;29;19917;-77
2022/06/28 17:49:19;;;;;;;;;;;;;;;23.65;36.98;101857.53;4836872;29;19916;-78
2022/06/28 17:51:46;;;;;;;;;;;;;;;23.64;37.19;101854.06;4818719;29;20354;-77
2022/06/28 17:54:12;;;;;;;;;;;;;;;23.65;37.06;101854.91;4849543;29;19941;-78
2022/06/28 17:56:37;;;;;;;;;;;;;;;23.66;37.26;101852.25;4848267;29;20041;-77
2022/06/28 17:59:03;;;;;;;;;;;;;;;23.66;37.46;101854.91;4832735;29;19937;-76
2022/06/28 18:01:28;;;;;;;;;;;;;;;23.71;37.26;101853.03;4832583;29;19938;-77
2022/06/28 18:03:53;;;;;;;;;;;;;;;23.71;37.39;101860.91;4848050;29;19948;-77
2022/06/28 18:06:18;;;;;;;;;;;;;;;23.73;37.52;101856.50;4817392;29;19968;-77
2022/06/28 18:08:44;;;;;;;;;;;;;;;23.69;37.82;101853.97;4849339;29;19919;-77
2022/06/28 18:11:09;;;;;;;;;;;;;;;23.69;37.45;101853.97;4849808;29;19922;-78
2022/06/28 18:13:34;;;;;;;;;;;;;;;23.72;37.38;101852.16;4833207;29;19926;-79
2022/06/28 18:15:59;;;;;;;;;;;;;;;23.74;37.42;101847.75;4852171;29;20028;-80
2022/06/28 18:18:25;;;;;;;;;;;;;;;23.76;37.84;101851.25;4858126;29;19919;-78
2022/06/28 18:20:50;;;;;;;;;;;;;;;23.78;38.26;101848.59;4852721;29;19912;-79
2022/06/28 18:23:17;;;;;;;;;;;;;;;23.72;38.36;101846.03;4851309;29;19929;-79
2022/06/28 18:25:44;;;;;;;;;;;;;;;23.67;38.46;101853.13;4856492;29;19916;-79
2022/06/28 18:28:10;;;;;;;;;;;;;;;23.66;38.51;101854.03;4860381;29;19984;-79
2022/06/28 18:30:37;;;;;;;;;;;;;;;23.63;38.18;101852.34;4842955;29;19912;-78
2022/06/28 18:33:02;;;;;;;;;;;;;;;23.58;38.27;101844.53;4854406;29;20019;-78
2022/06/28 18:35:29;;;;;;;;;;;;;;;23.58;38.64;101839.28;4850190;29;19948;-78
2022/06/28 18:37:55;;;;;;;;;;;;;;;23.59;38.42;101843.63;4851407;29;19912;-78
2022/06/28 18:40:20;;;;;;;;;;;;;;;23.57;38.55;101837.53;4850703;29;19923;-78
2022/06/28 18:42:45;;;;;;;;;;;;;;;23.56;38.72;101830.56;4851023;29;20003;-78
2022/06/28 18:45:11;;;;;;;;;;;;;;;23.54;38.85;101835.00;4850785;29;19919;-79
2022/06/28 18:47:37;;;;;;;;;;;;;;;23.58;38.80;101827.88;4847432;29;20325;-77
2022/06/28 18:50:05;;;;;;;;;;;;;;;23.56;38.59;101827.94;4818422;29;19947;-78
2022/06/28 18:52:32;;;;;;;;;;;;;;;23.58;38.51;101828.78;4832741;29;19919;-78
2022/06/28 18:54:58;;;;;;;;;;;;;;;23.59;38.88;101830.50;4832099;29;19968;-79
2022/06/28 18:57:23;;;;;;;;;;;;;;;23.55;39.20;101826.19;4838347;29;19947;-78
2022/06/28 18:59:48;;;;;;;;;;;;;;;23.54;39.29;101824.47;4856037;29;19923;-78
2022/06/28 19:02:14;;;;;;;;;;;;;;;23.52;39.44;101821.00;4834907;29;19916;-79
2022/06/28 19:04:40;;;;;;;;;;;;;;;23.55;39.07;101825.34;4852047;29;19969;-79
2022/06/28 19:07:06;;;;;;;;;;;;;;;23.55;39.19;101822.72;4834367;29;20379;-79
2022/06/28 19:09:32;;;;;;;;;;;;;;;23.54;39.35;101821.84;4851225;29;19917;-79
2022/06/28 19:11:57;;;;;;;;;;;;;;;23.50;39.21;101822.81;4850069;29;20003;-79
2022/06/28 19:14:22;;;;;;;;;;;;;;;23.49;39.03;101823.69;4848601;29;19924;-78
2022/06/28 19:16:48;;;;;;;;;;;;;;;23.50;38.88;101824.56;4834359;29;19917;-79
2022/06/28 19:19:13;;;;;;;;;;;;;;;23.47;38.90;101820.22;4849334;29;19974;-78
2022/06/28 19:21:39;;;;;;;;;;;;;;;23.46;39.17;101820.25;4846262;29;20390;-77
2022/06/28 19:24:05;;;;;;;;;;;;;;;23.44;39.14;101819.41;4848342;29;19955;-77
2022/06/28 19:26:33;;;;;;;;;;;;;;;23.43;39.19;101821.19;4834794;29;19912;-78
2022/06/28 19:28:59;;;;;;;;;;;;;;;23.43;38.98;101826.44;4852138;29;19920;-77
2022/06/28 19:31:26;;;;;;;;;;;;;;;23.44;38.93;101822.06;4836090;29;19916;-78
2022/06/28 19:33:52;;;;;;;;;;;;;;;23.40;39.21;101831.72;4848292;29;19916;-77
2022/06/28 19:36:19;;;;;;;;;;;;;;;23.40;39.24;101829.09;4849008;29;19923;-77
2022/06/28 19:38:44;;;;;;;;;;;;;;;23.43;39.31;101829.06;4851694;29;19943;-77
2022/06/28 19:41:09;;;;;;;;;;;;;;;23.42;39.33;101835.19;4851213;29;19923;-78
2022/06/28 19:43:35;;;;;;;;;;;;;;;23.42;39.32;101832.56;4850593;29;20372;-77
2022/06/28 19:46:00;;;;;;;;;;;;;;;23.40;39.36;101827.34;4820168;29;19951;-77
2022/06/28 19:48:25;;;;;;;;;;;;;;;23.37;39.52;101827.41;4850903;29;20364;-77
2022/06/28 19:50:50;;;;;;;;;;;;;;;23.35;39.15;101833.59;4819677;29;19923;-76
2022/06/28 19:53:16;;;;;;;;;;;;;;;23.34;39.12;101842.34;4819977;29;20393;-77
2022/06/28 19:55:41;;;;;;;;;;;;;;;23.32;39.46;101833.63;4836584;29;19912;-77
2022/06/28 19:58:06;;;;;;;;;;;;;;;23.33;39.37;101838.88;4851584;29;19913;-77
2022/06/28 20:00:32;;;;;;;;;;;;;;;23.27;39.19;101840.72;4836012;29;19912;-77
2022/06/28 20:02:58;;;;;;;;;;;;;;;23.28;39.27;101839.81;4836760;29;19941;-77
2022/06/28 20:05:34;;;;;;;;;;;;;;;23.28;39.09;101835.47;4827168;29;20011;-85
2022/06/28 20:08:00;;;;;;;;;;;;;;;23.28;39.28;101842.44;4835851;29;19900;-86
2022/06/28 20:10:25;;;;;;;;;;;;;;;23.29;39.48;101838.94;4848869;29;19912;-85
2022/06/28 20:12:53;;;;;;;;;;;;;;;23.23;39.66;101845.16;4835328;29;19924;-87
2022/06/28 20:18:26;;;;;;;;;;;;;;;23.24;39.42;101843.44;4864847;29;20377;-83
2022/06/28 20:20:59;;;;;;;;;;;;;;;23.20;39.87;101845.22;4848428;29;19913;-86
2022/06/28 20:23:49;;;;;;;;;;;;;;;23.16;39.92;101844.41;4849048;29;19913;-86
2022/06/28 20:29:20;;;;;;;;;;;;;;;23.33;39.44;101838.88;5090989;24;19935;-87
2022/06/28 20:31:46;;;;;;;;;;;;;;;23.37;39.58;101829.19;4890023;29;19904;-86
2022/06/28 20:34:18;;;;;;;;;;;;;;;23.39;39.45;101835.28;5176233;23;19949;31
2022/06/28 20:36:43;;;;;;;;;;;;;;;23.40;39.82;101831.72;4849070;29;19929;-84
2022/06/28 20:39:09;;;;;;;;;;;;;;;23.40;39.96;101829.09;4850129;29;19957;-86
2022/06/28 20:44:25;;;;;;;;;;;;;;;23.41;40.04;101829.09;4850564;29;19912;-85
2022/06/28 20:46:51;;;;;;;;;;;;;;;23.41;39.88;101829.09;4849645;29;19988;-85
2022/06/28 20:49:16;;;;;;;;;;;;;;;23.40;40.19;101829.09;4850130;29;19979;-85
2022/06/28 20:51:42;;;;;;;;;;;;;;;23.40;40.19;101826.47;4850064;29;19905;-85
2022/06/28 20:54:07;;;;;;;;;;;;;;;23.41;40.42;101833.50;4850431;29;19924;-85
2022/06/28 20:56:33;;;;;;;;;;;;;;;23.41;40.35;101826.47;4849784;29;19917;-85
2022/06/28 21:22:15;;;;;;;;;;;;;;;23.39;41.12;101806.38;5832184;23;19993;-80
2022/06/28 21:24:46;;;;;;;;;;;;;;;23.41;41.10;101801.97;4873089;29;19928;-82
2022/06/28 21:27:18;;;;;;;;;;;;;;;23.40;41.05;101811.59;4888558;29;19918;-81
2022/06/28 21:29:44;;;;;;;;;;;;;;;23.41;40.75;101796.72;4903445;29;19919;-81
2022/06/28 21:32:09;;;;;;;;;;;;;;;23.43;40.83;101797.56;4887052;29;19916;-80
2022/06/28 21:34:42;;;;;;;;;;;;;;;23.44;41.04;101795.78;4886900;29;19903;-78
2022/06/28 21:37:07;;;;;;;;;;;;;;;23.41;40.84;101791.47;4886627;29;19900;-81
2022/06/28 21:39:33;;;;;;;;;;;;;;;23.35;41.28;101787.19;4902972;29;19923;-81
2022/06/28 21:41:59;;;;;;;;;;;;;;;23.37;41.30;101788.00;4886637;29;19936;-81
2022/06/28 21:44:24;;;;;;;;;;;;;;;23.38;41.03;101786.25;4869893;29;19987;-79
2022/06/28 21:46:50;;;;;;;;;;;;;;;23.39;41.03;101788.84;4900782;29;19919;-80
2022/06/28 21:49:15;;;;;;;;;;;;;;;23.39;41.33;101790.63;4902190;29;19916;-80
2022/06/28 21:51:46;;;;;;;;;;;;;;;23.39;41.38;101780.13;4884670;29;20375;-80
2022/06/28 21:54:11;;;;;;;;;;;;;;;23.36;41.59;101780.16;4867181;29;20018;-80
2022/06/28 21:56:38;;;;;;;;;;;;;;;23.36;41.41;101788.88;4896374;29;19911;-80
2022/06/28 21:59:03;;;;;;;;;;;;;;;23.39;41.61;101796.72;4863714;29;19915;-79
2022/06/28 22:01:32;;;;;;;;;;;;;;;23.38;41.28;101791.50;4895949;29;19921;-79
2022/06/28 22:03:57;;;;;;;;;;;;;;;23.37;41.38;101788.00;4895265;29;19920;-80
2022/06/28 22:06:22;;;;;;;;;;;;;;;23.39;41.60;101793.25;4895437;29;20314;-80
2022/06/28 22:08:48;;;;;;;;;;;;;;;23.38;41.83;101796.75;4894693;29;19911;-79
2022/06/28 22:11:31;;;;;;;;;;;;;;;23.35;41.44;101786.31;4876882;29;19922;-79
2022/06/28 22:13:57;;;;;;;;;;;;;;;23.36;41.64;101783.63;4876299;29;19915;-79
2022/06/28 22:16:24;;;;;;;;;;;;;;;23.37;41.35;101789.78;4877677;29;19916;-79